sensor_id;sensor_type;location;lat;lon;timestamp;temperature;humidity
65854;DHT22;52627;48.838;2.402;2022-08-19T00:02:14;22.82;60.97
65854;DHT22;52627;48.838;2.402;2022-08-19T00:04:42;22.81;61.03
65854;DHT22;52627;48.838;2.402;2022-08-19T00:07:09;22.80;61.11
65854;DHT22;52627;48.838;2.402;2022-08-19T00:09:37;22.80;61.18
65854;DHT22;52627;48.838;2.402;2022-08-19T00:12:04;22.78;61.20
65854;DHT22;52627;48.838;2.402;2022-08-19T00:14:32;22.73;61.21
65854;DHT22;52627;48.838;2.402;2022-08-19T00:17:00;22.70;61.25
65854;DHT22;52627;48.838;2.402;2022-08-19T00:19:30;22.67;61.30
65854;DHT22;52627;48.838;2.402;2022-08-19T00:21:58;22.64;61.30
65854;DHT22;52627;48.838;2.402;2022-08-19T00:24:25;22.63;61.35
65854;DHT22;52627;48.838;2.402;2022-08-19T00:26:54;22.61;61.40
65854;DHT22;52627;48.838;2.402;2022-08-19T00:29:43;22.60;61.47
65854;DHT22;52627;48.838;2.402;2022-08-19T00:32:11;22.58;61.50
65854;DHT22;52627;48.838;2.402;2022-08-19T00:34:39;22.57;61.59
65854;DHT22;52627;48.838;2.402;2022-08-19T00:37:07;22.55;61.61
65854;DHT22;52627;48.838;2.402;2022-08-19T00:39:34;22.51;61.69
65854;DHT22;52627;48.838;2.402;2022-08-19T00:42:02;22.48;61.72
65854;DHT22;52627;48.838;2.402;2022-08-19T00:44:30;22.47;61.77
65854;DHT22;52627;48.838;2.402;2022-08-19T00:46:58;22.45;61.80
65854;DHT22;52627;48.838;2.402;2022-08-19T00:52:31;22.39;61.90
65854;DHT22;52627;48.838;2.402;2022-08-19T00:55:03;22.35;61.90
65854;DHT22;52627;48.838;2.402;2022-08-19T00:57:35;22.33;61.93
65854;DHT22;52627;48.838;2.402;2022-08-19T01:00:09;22.29;61.99
65854;DHT22;52627;48.838;2.402;2022-08-19T01:02:41;22.27;62.04
65854;DHT22;52627;48.838;2.402;2022-08-19T01:05:17;22.24;62.12
65854;DHT22;52627;48.838;2.402;2022-08-19T01:07:49;22.22;62.15
65854;DHT22;52627;48.838;2.402;2022-08-19T01:10:19;22.20;62.16
65854;DHT22;52627;48.838;2.402;2022-08-19T01:12:50;22.17;62.22
65854;DHT22;52627;48.838;2.402;2022-08-19T01:15:21;22.18;62.30
65854;DHT22;52627;48.838;2.402;2022-08-19T01:17:54;22.18;62.30
65854;DHT22;52627;48.838;2.402;2022-08-19T01:20:24;22.16;62.31
65854;DHT22;52627;48.838;2.402;2022-08-19T01:22:54;22.14;62.40
65854;DHT22;52627;48.838;2.402;2022-08-19T01:25:32;22.12;62.40
65854;DHT22;52627;48.838;2.402;2022-08-19T01:28:13;22.09;62.41
65854;DHT22;52627;48.838;2.402;2022-08-19T01:31:00;22.07;62.45
65854;DHT22;52627;48.838;2.402;2022-08-19T01:33:34;22.05;62.49
65854;DHT22;52627;48.838;2.402;2022-08-19T01:36:09;22.03;62.50
65854;DHT22;52627;48.838;2.402;2022-08-19T01:38:41;22.01;62.60
65854;DHT22;52627;48.838;2.402;2022-08-19T01:41:11;22.00;62.60
65854;DHT22;52627;48.838;2.402;2022-08-19T01:43:39;21.98;62.60
65854;DHT22;52627;48.838;2.402;2022-08-19T01:46:27;21.97;62.63
65854;DHT22;52627;48.838;2.402;2022-08-19T01:48:55;21.96;62.67
65854;DHT22;52627;48.838;2.402;2022-08-19T01:51:23;21.95;62.72
65854;DHT22;52627;48.838;2.402;2022-08-19T01:53:51;21.93;62.80
65854;DHT22;52627;48.838;2.402;2022-08-19T01:56:19;21.91;62.81
65854;DHT22;52627;48.838;2.402;2022-08-19T01:58:52;21.90;62.86
65854;DHT22;52627;48.838;2.402;2022-08-19T02:01:24;21.87;62.89
65854;DHT22;52627;48.838;2.402;2022-08-19T02:03:57;21.88;62.95
65854;DHT22;52627;48.838;2.402;2022-08-19T02:06:28;21.87;63.00
65854;DHT22;52627;48.838;2.402;2022-08-19T02:08:56;21.85;63.04
65854;DHT22;52627;48.838;2.402;2022-08-19T02:11:29;21.82;63.11
65854;DHT22;52627;48.838;2.402;2022-08-19T02:14:01;21.81;63.18
65854;DHT22;52627;48.838;2.402;2022-08-19T02:16:32;21.78;63.25
65854;DHT22;52627;48.838;2.402;2022-08-19T02:19:02;21.75;63.30
65854;DHT22;52627;48.838;2.402;2022-08-19T02:21:30;21.73;63.38
65854;DHT22;52627;48.838;2.402;2022-08-19T02:23:58;21.70;63.41
65854;DHT22;52627;48.838;2.402;2022-08-19T02:26:26;21.70;63.46
65854;DHT22;52627;48.838;2.402;2022-08-19T02:28:54;21.67;63.51
65854;DHT22;52627;48.838;2.402;2022-08-19T02:31:23;21.66;63.59
65854;DHT22;52627;48.838;2.402;2022-08-19T02:33:52;21.65;63.65
65854;DHT22;52627;48.838;2.402;2022-08-19T02:36:23;21.63;63.72
65854;DHT22;52627;48.838;2.402;2022-08-19T02:38:52;21.61;63.84
65854;DHT22;52627;48.838;2.402;2022-08-19T02:41:23;21.59;63.89
65854;DHT22;52627;48.838;2.402;2022-08-19T02:43:56;21.57;63.95
65854;DHT22;52627;48.838;2.402;2022-08-19T02:46:46;21.55;64.08
65854;DHT22;52627;48.838;2.402;2022-08-19T02:49:17;21.51;64.15
65854;DHT22;52627;48.838;2.402;2022-08-19T02:51:45;21.51;64.23
65854;DHT22;52627;48.838;2.402;2022-08-19T02:54:14;21.51;64.34
65854;DHT22;52627;48.838;2.402;2022-08-19T02:56:43;21.52;64.41
65854;DHT22;52627;48.838;2.402;2022-08-19T02:59:12;21.51;64.50
65854;DHT22;52627;48.838;2.402;2022-08-19T03:01:41;21.50;64.57
65854;DHT22;52627;48.838;2.402;2022-08-19T03:04:10;21.48;64.65
65854;DHT22;52627;48.838;2.402;2022-08-19T03:06:43;21.50;64.70
65854;DHT22;52627;48.838;2.402;2022-08-19T03:09:13;21.50;64.79
65854;DHT22;52627;48.838;2.402;2022-08-19T03:11:42;21.50;64.86
65854;DHT22;52627;48.838;2.402;2022-08-19T03:14:10;21.51;64.90
65854;DHT22;52627;48.838;2.402;2022-08-19T03:16:45;21.53;64.92
65854;DHT22;52627;48.838;2.402;2022-08-19T03:19:18;21.52;64.99
65854;DHT22;52627;48.838;2.402;2022-08-19T03:21:48;21.52;65.07
65854;DHT22;52627;48.838;2.402;2022-08-19T03:24:17;21.50;65.17
65854;DHT22;52627;48.838;2.402;2022-08-19T03:26:48;21.48;65.26
65854;DHT22;52627;48.838;2.402;2022-08-19T03:29:19;21.46;65.33
65854;DHT22;52627;48.838;2.402;2022-08-19T03:32:01;21.44;65.43
65854;DHT22;52627;48.838;2.402;2022-08-19T03:34:33;21.44;65.52
65854;DHT22;52627;48.838;2.402;2022-08-19T03:37:04;21.45;65.62
65854;DHT22;52627;48.838;2.402;2022-08-19T03:39:40;21.42;65.73
65854;DHT22;52627;48.838;2.402;2022-08-19T03:42:09;21.40;65.82
65854;DHT22;52627;48.838;2.402;2022-08-19T03:44:58;21.40;65.88
65854;DHT22;52627;48.838;2.402;2022-08-19T03:47:25;21.38;65.96
65854;DHT22;52627;48.838;2.402;2022-08-19T03:49:53;21.37;66.02
65854;DHT22;52627;48.838;2.402;2022-08-19T03:52:20;21.36;66.10
65854;DHT22;52627;48.838;2.402;2022-08-19T03:54:48;21.36;66.19
65854;DHT22;52627;48.838;2.402;2022-08-19T03:57:15;21.35;66.23
65854;DHT22;52627;48.838;2.402;2022-08-19T03:59:43;21.32;66.22
65854;DHT22;52627;48.838;2.402;2022-08-19T04:02:11;21.29;66.21
65854;DHT22;52627;48.838;2.402;2022-08-19T04:04:41;21.27;66.26
65854;DHT22;52627;48.838;2.402;2022-08-19T04:07:11;21.27;66.30
65854;DHT22;52627;48.838;2.402;2022-08-19T04:09:42;21.28;66.33
65854;DHT22;52627;48.838;2.402;2022-08-19T04:12:10;21.30;66.40
65854;DHT22;52627;48.838;2.402;2022-08-19T04:14:38;21.30;66.46
65854;DHT22;52627;48.838;2.402;2022-08-19T04:17:06;21.31;66.50
65854;DHT22;52627;48.838;2.402;2022-08-19T04:19:35;21.30;66.56
65854;DHT22;52627;48.838;2.402;2022-08-19T04:22:03;21.30;66.58
65854;DHT22;52627;48.838;2.402;2022-08-19T04:24:31;21.30;66.62
65854;DHT22;52627;48.838;2.402;2022-08-19T04:26:59;21.32;66.65
65854;DHT22;52627;48.838;2.402;2022-08-19T04:29:29;21.32;66.65
65854;DHT22;52627;48.838;2.402;2022-08-19T04:31:57;21.33;66.71
65854;DHT22;52627;48.838;2.402;2022-08-19T04:34:34;21.33;66.71
65854;DHT22;52627;48.838;2.402;2022-08-19T04:37:23;21.32;66.77
65854;DHT22;52627;48.838;2.402;2022-08-19T04:39:55;21.34;66.79
65854;DHT22;52627;48.838;2.402;2022-08-19T04:42:41;21.36;66.76
65854;DHT22;52627;48.838;2.402;2022-08-19T04:45:12;21.38;66.71
65854;DHT22;52627;48.838;2.402;2022-08-19T04:47:43;21.40;66.77
65854;DHT22;52627;48.838;2.402;2022-08-19T04:50:25;21.42;66.72
65854;DHT22;52627;48.838;2.402;2022-08-19T04:52:53;21.42;66.70
65854;DHT22;52627;48.838;2.402;2022-08-19T04:55:22;21.42;66.71
65854;DHT22;52627;48.838;2.402;2022-08-19T04:57:53;21.39;66.74
65854;DHT22;52627;48.838;2.402;2022-08-19T05:00:21;21.39;66.80
65854;DHT22;52627;48.838;2.402;2022-08-19T05:02:49;21.39;66.89
65854;DHT22;52627;48.838;2.402;2022-08-19T05:05:17;21.38;66.94
65854;DHT22;52627;48.838;2.402;2022-08-19T05:07:45;21.40;67.00
65854;DHT22;52627;48.838;2.402;2022-08-19T05:10:12;21.42;67.00
65854;DHT22;52627;48.838;2.402;2022-08-19T05:12:40;21.44;67.00
65854;DHT22;52627;48.838;2.402;2022-08-19T05:15:08;21.46;67.05
65854;DHT22;52627;48.838;2.402;2022-08-19T05:17:36;21.48;67.10
65854;DHT22;52627;48.838;2.402;2022-08-19T05:20:05;21.50;67.20
65854;DHT22;52627;48.838;2.402;2022-08-19T05:22:53;21.50;67.23
65854;DHT22;52627;48.838;2.402;2022-08-19T05:25:21;21.52;67.28
65854;DHT22;52627;48.838;2.402;2022-08-19T05:27:49;21.53;67.24
65854;DHT22;52627;48.838;2.402;2022-08-19T05:30:16;21.52;67.21
65854;DHT22;52627;48.838;2.402;2022-08-19T05:32:59;21.52;67.20
65854;DHT22;52627;48.838;2.402;2022-08-19T05:35:27;21.52;67.20
65854;DHT22;52627;48.838;2.402;2022-08-19T05:38:00;21.52;67.20
65854;DHT22;52627;48.838;2.402;2022-08-19T05:40:28;21.53;67.20
65854;DHT22;52627;48.838;2.402;2022-08-19T05:42:56;21.53;67.20
65854;DHT22;52627;48.838;2.402;2022-08-19T05:45:23;21.55;67.20
65854;DHT22;52627;48.838;2.402;2022-08-19T05:47:51;21.55;67.20
65854;DHT22;52627;48.838;2.402;2022-08-19T05:50:19;21.53;67.28
65854;DHT22;52627;48.838;2.402;2022-08-19T05:52:47;21.53;67.34
65854;DHT22;52627;48.838;2.402;2022-08-19T05:55:16;21.55;67.30
65854;DHT22;52627;48.838;2.402;2022-08-19T05:57:47;21.58;67.37
65854;DHT22;52627;48.838;2.402;2022-08-19T06:00:15;21.58;67.44
65854;DHT22;52627;48.838;2.402;2022-08-19T06:02:48;21.58;67.55
65854;DHT22;52627;48.838;2.402;2022-08-19T06:05:16;21.58;67.62
65854;DHT22;52627;48.838;2.402;2022-08-19T06:07:43;21.58;67.68
65854;DHT22;52627;48.838;2.402;2022-08-19T06:10:11;21.63;67.68
65854;DHT22;52627;48.838;2.402;2022-08-19T06:12:38;21.66;67.70
65854;DHT22;52627;48.838;2.402;2022-08-19T06:15:11;21.67;67.70
65854;DHT22;52627;48.838;2.402;2022-08-19T06:17:40;21.68;67.79
65854;DHT22;52627;48.838;2.402;2022-08-19T06:20:12;21.71;67.80
65854;DHT22;52627;48.838;2.402;2022-08-19T06:22:42;21.74;67.80
65854;DHT22;52627;48.838;2.402;2022-08-19T06:25:17;21.76;67.80
65854;DHT22;52627;48.838;2.402;2022-08-19T06:27:45;21.74;67.79
65854;DHT22;52627;48.838;2.402;2022-08-19T06:30:32;21.73;67.80
65854;DHT22;52627;48.838;2.402;2022-08-19T06:33:00;21.71;67.88
65854;DHT22;52627;48.838;2.402;2022-08-19T06:35:27;21.70;67.90
65854;DHT22;52627;48.838;2.402;2022-08-19T06:37:56;21.68;67.91
65854;DHT22;52627;48.838;2.402;2022-08-19T06:40:24;21.68;68.00
65854;DHT22;52627;48.838;2.402;2022-08-19T06:42:53;21.66;67.99
65854;DHT22;52627;48.838;2.402;2022-08-19T06:45:23;21.68;68.00
65854;DHT22;52627;48.838;2.402;2022-08-19T06:48:02;21.69;68.01
65854;DHT22;52627;48.838;2.402;2022-08-19T06:50:29;21.70;68.02
65854;DHT22;52627;48.838;2.402;2022-08-19T06:52:57;21.69;68.08
65854;DHT22;52627;48.838;2.402;2022-08-19T06:55:30;21.69;68.09
65854;DHT22;52627;48.838;2.402;2022-08-19T06:58:03;21.65;68.10
65854;DHT22;52627;48.838;2.402;2022-08-19T07:00:32;21.68;68.13
65854;DHT22;52627;48.838;2.402;2022-08-19T07:03:00;21.74;68.15
65854;DHT22;52627;48.838;2.402;2022-08-19T07:05:32;21.81;68.10
65854;DHT22;52627;48.838;2.402;2022-08-19T07:08:00;21.92;68.04
65854;DHT22;52627;48.838;2.402;2022-08-19T07:10:31;22.02;67.92
65854;DHT22;52627;48.838;2.402;2022-08-19T07:12:59;22.06;67.89
65854;DHT22;52627;48.838;2.402;2022-08-19T07:15:27;22.11;67.82
65854;DHT22;52627;48.838;2.402;2022-08-19T07:17:55;22.16;67.77
65854;DHT22;52627;48.838;2.402;2022-08-19T07:20:22;22.25;67.70
65854;DHT22;52627;48.838;2.402;2022-08-19T07:22:55;22.36;67.62
65854;DHT22;52627;48.838;2.402;2022-08-19T07:25:22;22.42;67.45
65854;DHT22;52627;48.838;2.402;2022-08-19T07:27:59;22.46;67.35
65854;DHT22;52627;48.838;2.402;2022-08-19T07:30:27;22.52;67.26
65854;DHT22;52627;48.838;2.402;2022-08-19T07:32:55;22.56;67.17
65854;DHT22;52627;48.838;2.402;2022-08-19T07:35:23;22.61;67.11
65854;DHT22;52627;48.838;2.402;2022-08-19T07:37:51;22.67;66.99
65854;DHT22;52627;48.838;2.402;2022-08-19T07:40:20;22.70;66.90
65854;DHT22;52627;48.838;2.402;2022-08-19T07:42:47;22.73;66.81
65854;DHT22;52627;48.838;2.402;2022-08-19T07:45:15;22.72;66.68
65854;DHT22;52627;48.838;2.402;2022-08-19T07:47:43;22.73;66.64
65854;DHT22;52627;48.838;2.402;2022-08-19T07:50:17;22.72;66.57
65854;DHT22;52627;48.838;2.402;2022-08-19T07:52:48;22.69;66.45
65854;DHT22;52627;48.838;2.402;2022-08-19T07:55:24;22.63;66.40
65854;DHT22;52627;48.838;2.402;2022-08-19T07:58:10;22.59;66.41
65854;DHT22;52627;48.838;2.402;2022-08-19T08:00:41;22.57;66.43
65854;DHT22;52627;48.838;2.402;2022-08-19T08:03:10;22.55;66.48
65854;DHT22;52627;48.838;2.402;2022-08-19T08:05:39;22.54;66.40
65854;DHT22;52627;48.838;2.402;2022-08-19T08:08:25;22.48;66.40
65854;DHT22;52627;48.838;2.402;2022-08-19T08:11:16;22.44;66.49
65854;DHT22;52627;48.838;2.402;2022-08-19T08:13:47;22.39;66.53
65854;DHT22;52627;48.838;2.402;2022-08-19T08:16:32;22.39;66.60
65854;DHT22;52627;48.838;2.402;2022-08-19T08:19:13;22.39;66.56
65854;DHT22;52627;48.838;2.402;2022-08-19T08:21:52;22.41;66.59
65854;DHT22;52627;48.838;2.402;2022-08-19T08:24:24;22.43;66.62
65854;DHT22;52627;48.838;2.402;2022-08-19T08:26:58;22.48;66.61
65854;DHT22;52627;48.838;2.402;2022-08-19T08:29:28;22.50;66.59
65854;DHT22;52627;48.838;2.402;2022-08-19T08:32:01;22.56;66.56
65854;DHT22;52627;48.838;2.402;2022-08-19T08:34:41;22.62;66.52
65854;DHT22;52627;48.838;2.402;2022-08-19T08:37:09;22.69;66.45
65854;DHT22;52627;48.838;2.402;2022-08-19T08:39:36;22.75;66.42
65854;DHT22;52627;48.838;2.402;2022-08-19T08:45:10;22.77;66.30
65854;DHT22;52627;48.838;2.402;2022-08-19T08:47:43;22.78;66.21
65854;DHT22;52627;48.838;2.402;2022-08-19T08:53:02;22.74;66.16
65854;DHT22;52627;48.838;2.402;2022-08-19T08:55:33;22.77;66.19
65854;DHT22;52627;48.838;2.402;2022-08-19T08:58:10;22.86;66.20
65854;DHT22;52627;48.838;2.402;2022-08-19T09:00:45;22.95;66.15
65854;DHT22;52627;48.838;2.402;2022-08-19T09:03:26;23.00;65.99
65854;DHT22;52627;48.838;2.402;2022-08-19T09:06:07;23.03;65.90
65854;DHT22;52627;48.838;2.402;2022-08-19T09:11:47;23.00;65.80
65854;DHT22;52627;48.838;2.402;2022-08-19T09:15:00;23.06;65.74
65854;DHT22;52627;48.838;2.402;2022-08-19T09:17:32;23.08;65.67
65854;DHT22;52627;48.838;2.402;2022-08-19T09:20:04;23.12;65.60
65854;DHT22;52627;48.838;2.402;2022-08-19T09:22:47;23.18;65.51
65854;DHT22;52627;48.838;2.402;2022-08-19T09:25:17;23.20;65.44
65854;DHT22;52627;48.838;2.402;2022-08-19T09:27:54;23.27;65.39
65854;DHT22;52627;48.838;2.402;2022-08-19T09:30:30;23.34;65.24
65854;DHT22;52627;48.838;2.402;2022-08-19T09:33:03;23.42;65.23
65854;DHT22;52627;48.838;2.402;2022-08-19T09:35:31;23.48;65.05
65854;DHT22;52627;48.838;2.402;2022-08-19T09:38:20;23.53;64.95
65854;DHT22;52627;48.838;2.402;2022-08-19T09:40:48;23.55;64.81
65854;DHT22;52627;48.838;2.402;2022-08-19T09:43:17;23.59;64.72
65854;DHT22;52627;48.838;2.402;2022-08-19T09:46:00;23.67;64.62
65854;DHT22;52627;48.838;2.402;2022-08-19T09:48:28;23.73;64.47
65854;DHT22;52627;48.838;2.402;2022-08-19T09:51:01;23.88;64.41
65854;DHT22;52627;48.838;2.402;2022-08-19T09:53:31;24.16;64.21
65854;DHT22;52627;48.838;2.402;2022-08-19T09:56:00;24.35;64.04
65854;DHT22;52627;48.838;2.402;2022-08-19T09:58:30;24.51;63.84
65854;DHT22;52627;48.838;2.402;2022-08-19T10:01:00;24.58;63.47
65854;DHT22;52627;48.838;2.402;2022-08-19T10:03:32;24.64;63.46
65854;DHT22;52627;48.838;2.402;2022-08-19T10:06:03;24.73;63.32
65854;DHT22;52627;48.838;2.402;2022-08-19T10:08:41;24.79;63.01
65854;DHT22;52627;48.838;2.402;2022-08-19T10:11:16;24.82;62.83
65854;DHT22;52627;48.838;2.402;2022-08-19T10:14:01;24.83;62.59
65854;DHT22;52627;48.838;2.402;2022-08-19T10:16:33;24.80;62.58
65854;DHT22;52627;48.838;2.402;2022-08-19T10:19:05;24.78;62.46
65854;DHT22;52627;48.838;2.402;2022-08-19T10:21:33;24.77;62.35
65854;DHT22;52627;48.838;2.402;2022-08-19T10:24:03;24.79;62.24
65854;DHT22;52627;48.838;2.402;2022-08-19T10:26:33;24.81;62.11
65854;DHT22;52627;48.838;2.402;2022-08-19T10:29:04;24.83;62.05
65854;DHT22;52627;48.838;2.402;2022-08-19T10:31:35;24.83;61.90
65854;DHT22;52627;48.838;2.402;2022-08-19T10:34:23;24.83;61.85
65854;DHT22;52627;48.838;2.402;2022-08-19T10:36:54;24.86;61.70
65854;DHT22;52627;48.838;2.402;2022-08-19T10:39:30;24.94;61.68
65854;DHT22;52627;48.838;2.402;2022-08-19T10:42:09;25.10;61.57
65854;DHT22;52627;48.838;2.402;2022-08-19T10:44:40;25.24;61.38
65854;DHT22;52627;48.838;2.402;2022-08-19T10:47:08;25.41;61.27
65854;DHT22;52627;48.838;2.402;2022-08-19T10:49:50;25.86;60.94
65854;DHT22;52627;48.838;2.402;2022-08-19T10:52:39;26.26;60.46
65854;DHT22;52627;48.838;2.402;2022-08-19T10:55:20;26.44;60.29
65854;DHT22;52627;48.838;2.402;2022-08-19T10:58:12;26.70;60.02
65854;DHT22;52627;48.838;2.402;2022-08-19T11:00:53;26.95;59.53
65854;DHT22;52627;48.838;2.402;2022-08-19T11:03:26;26.99;59.01
65854;DHT22;52627;48.838;2.402;2022-08-19T11:05:58;26.96;58.77
65854;DHT22;52627;48.838;2.402;2022-08-19T11:08:33;26.94;58.46
65854;DHT22;52627;48.838;2.402;2022-08-19T11:11:02;26.90;58.21
65854;DHT22;52627;48.838;2.402;2022-08-19T11:13:31;27.11;57.76
65854;DHT22;52627;48.838;2.402;2022-08-19T11:16:07;27.35;57.52
65854;DHT22;52627;48.838;2.402;2022-08-19T11:18:46;27.48;57.29
65854;DHT22;52627;48.838;2.402;2022-08-19T11:21:18;27.51;56.91
65854;DHT22;52627;48.838;2.402;2022-08-19T11:23:50;27.45;56.75
65854;DHT22;52627;48.838;2.402;2022-08-19T11:26:22;27.32;56.51
65854;DHT22;52627;48.838;2.402;2022-08-19T11:28:51;27.12;56.26
65854;DHT22;52627;48.838;2.402;2022-08-19T11:31:22;26.96;56.29
65854;DHT22;52627;48.838;2.402;2022-08-19T11:33:56;26.86;56.31
65854;DHT22;52627;48.838;2.402;2022-08-19T11:36:26;26.82;56.36
65854;DHT22;52627;48.838;2.402;2022-08-19T11:38:54;26.78;56.17
65854;DHT22;52627;48.838;2.402;2022-08-19T11:41:22;26.74;56.20
65854;DHT22;52627;48.838;2.402;2022-08-19T11:43:52;26.73;56.09
65854;DHT22;52627;48.838;2.402;2022-08-19T11:46:23;26.65;56.16
65854;DHT22;52627;48.838;2.402;2022-08-19T11:48:52;26.61;56.20
65854;DHT22;52627;48.838;2.402;2022-08-19T11:51:20;26.53;56.19
65854;DHT22;52627;48.838;2.402;2022-08-19T11:53:52;26.45;56.22
65854;DHT22;52627;48.838;2.402;2022-08-19T11:56:22;26.38;56.26
65854;DHT22;52627;48.838;2.402;2022-08-19T11:58:51;26.28;56.32
65854;DHT22;52627;48.838;2.402;2022-08-19T12:01:21;26.18;56.40
65854;DHT22;52627;48.838;2.402;2022-08-19T12:03:51;26.07;56.64
65854;DHT22;52627;48.838;2.402;2022-08-19T12:06:25;25.97;57.40
65854;DHT22;52627;48.838;2.402;2022-08-19T12:08:56;25.83;58.14
65854;DHT22;52627;48.838;2.402;2022-08-19T12:11:34;25.67;58.90
65854;DHT22;52627;48.838;2.402;2022-08-19T12:14:03;25.52;59.61
65854;DHT22;52627;48.838;2.402;2022-08-19T12:16:31;25.39;60.17
65854;DHT22;52627;48.838;2.402;2022-08-19T12:19:00;25.30;60.60
65854;DHT22;52627;48.838;2.402;2022-08-19T12:21:32;25.19;60.94
65854;DHT22;52627;48.838;2.402;2022-08-19T12:24:03;25.17;61.37
65854;DHT22;52627;48.838;2.402;2022-08-19T12:26:33;25.16;61.93
65854;DHT22;52627;48.838;2.402;2022-08-19T12:29:20;25.15;62.19
65854;DHT22;52627;48.838;2.402;2022-08-19T12:31:50;25.16;62.42
65854;DHT22;52627;48.838;2.402;2022-08-19T12:34:18;25.16;62.66
65854;DHT22;52627;48.838;2.402;2022-08-19T12:36:47;25.16;62.97
65854;DHT22;52627;48.838;2.402;2022-08-19T12:39:16;25.17;63.24
65854;DHT22;52627;48.838;2.402;2022-08-19T12:41:44;25.21;63.48
65854;DHT22;52627;48.838;2.402;2022-08-19T12:44:21;25.26;63.82
65854;DHT22;52627;48.838;2.402;2022-08-19T12:46:58;25.32;64.03
65854;DHT22;52627;48.838;2.402;2022-08-19T12:49:27;25.33;64.15
65854;DHT22;52627;48.838;2.402;2022-08-19T12:52:21;25.32;64.36
65854;DHT22;52627;48.838;2.402;2022-08-19T12:54:51;25.33;64.54
65854;DHT22;52627;48.838;2.402;2022-08-19T12:57:25;25.33;64.63
65854;DHT22;52627;48.838;2.402;2022-08-19T12:59:59;25.34;64.55
65854;DHT22;52627;48.838;2.402;2022-08-19T13:02:48;25.34;64.61
65854;DHT22;52627;48.838;2.402;2022-08-19T13:05:22;25.36;64.71
65854;DHT22;52627;48.838;2.402;2022-08-19T13:07:54;25.42;64.72
65854;DHT22;52627;48.838;2.402;2022-08-19T13:10:25;25.52;64.74
65854;DHT22;52627;48.838;2.402;2022-08-19T13:12:58;25.65;64.54
65854;DHT22;52627;48.838;2.402;2022-08-19T13:15:26;25.68;64.07
65854;DHT22;52627;48.838;2.402;2022-08-19T13:17:55;25.81;64.18
65854;DHT22;52627;48.838;2.402;2022-08-19T13:20:23;26.01;64.12
65854;DHT22;52627;48.838;2.402;2022-08-19T13:22:52;26.20;63.72
65854;DHT22;52627;48.838;2.402;2022-08-19T13:25:21;26.30;63.42
65854;DHT22;52627;48.838;2.402;2022-08-19T13:27:48;26.34;63.14
65854;DHT22;52627;48.838;2.402;2022-08-19T13:30:19;26.41;62.80
65854;DHT22;52627;48.838;2.402;2022-08-19T13:33:06;26.47;62.57
65854;DHT22;52627;48.838;2.402;2022-08-19T13:35:47;26.54;62.27
65854;DHT22;52627;48.838;2.402;2022-08-19T13:38:18;26.61;61.89
65854;DHT22;52627;48.838;2.402;2022-08-19T13:40:48;26.65;61.59
65854;DHT22;52627;48.838;2.402;2022-08-19T13:43:20;26.70;61.29
65854;DHT22;52627;48.838;2.402;2022-08-19T13:45:51;26.80;60.87
65854;DHT22;52627;48.838;2.402;2022-08-19T13:48:23;26.92;60.85
65854;DHT22;52627;48.838;2.402;2022-08-19T13:50:54;27.04;60.27
65854;DHT22;52627;48.838;2.402;2022-08-19T13:53:22;27.14;60.03
65854;DHT22;52627;48.838;2.402;2022-08-19T13:55:50;27.35;59.97
65854;DHT22;52627;48.838;2.402;2022-08-19T13:58:18;27.58;59.55
65854;DHT22;52627;48.838;2.402;2022-08-19T14:00:45;27.76;59.05
65854;DHT22;52627;48.838;2.402;2022-08-19T14:03:14;27.93;58.69
65854;DHT22;52627;48.838;2.402;2022-08-19T14:05:43;28.06;57.99
65854;DHT22;52627;48.838;2.402;2022-08-19T14:08:13;28.22;57.72
65854;DHT22;52627;48.838;2.402;2022-08-19T14:10:41;28.33;56.92
65854;DHT22;52627;48.838;2.402;2022-08-19T14:13:13;28.35;56.13
65854;DHT22;52627;48.838;2.402;2022-08-19T14:15:44;28.35;55.85
65854;DHT22;52627;48.838;2.402;2022-08-19T14:18:13;28.45;55.73
65854;DHT22;52627;48.838;2.402;2022-08-19T14:20:42;28.52;55.36
65854;DHT22;52627;48.838;2.402;2022-08-19T14:23:10;28.59;55.09
65854;DHT22;52627;48.838;2.402;2022-08-19T14:25:39;28.61;54.74
65854;DHT22;52627;48.838;2.402;2022-08-19T14:28:07;28.58;54.45
65854;DHT22;52627;48.838;2.402;2022-08-19T14:30:35;28.53;54.20
65854;DHT22;52627;48.838;2.402;2022-08-19T14:33:04;28.48;53.94
65854;DHT22;52627;48.838;2.402;2022-08-19T14:35:34;28.43;53.82
65854;DHT22;52627;48.838;2.402;2022-08-19T14:38:05;28.46;53.69
65854;DHT22;52627;48.838;2.402;2022-08-19T14:40:34;28.50;53.52
65854;DHT22;52627;48.838;2.402;2022-08-19T14:43:02;28.52;53.41
65854;DHT22;52627;48.838;2.402;2022-08-19T14:45:32;28.57;53.27
65854;DHT22;52627;48.838;2.402;2022-08-19T14:48:04;28.63;53.06
65854;DHT22;52627;48.838;2.402;2022-08-19T14:50:33;28.68;52.78
65854;DHT22;52627;48.838;2.402;2022-08-19T14:53:04;28.69;52.50
65854;DHT22;52627;48.838;2.402;2022-08-19T14:55:42;28.64;52.24
65854;DHT22;52627;48.838;2.402;2022-08-19T14:58:11;28.57;52.19
65854;DHT22;52627;48.838;2.402;2022-08-19T15:00:57;28.52;52.15
65854;DHT22;52627;48.838;2.402;2022-08-19T15:03:27;28.50;52.03
65854;DHT22;52627;48.838;2.402;2022-08-19T15:05:56;28.45;51.98
65854;DHT22;52627;48.838;2.402;2022-08-19T15:08:25;28.42;51.99
65854;DHT22;52627;48.838;2.402;2022-08-19T15:10:54;28.37;51.96
65854;DHT22;52627;48.838;2.402;2022-08-19T15:13:22;28.32;51.93
65854;DHT22;52627;48.838;2.402;2022-08-19T15:15:51;28.24;51.90
65854;DHT22;52627;48.838;2.402;2022-08-19T15:18:20;28.11;51.79
65854;DHT22;52627;48.838;2.402;2022-08-19T15:20:48;27.98;51.99
65854;DHT22;52627;48.838;2.402;2022-08-19T15:23:18;27.90;52.04
65854;DHT22;52627;48.838;2.402;2022-08-19T15:25:47;27.81;52.03
65854;DHT22;52627;48.838;2.402;2022-08-19T15:28:18;27.74;52.07
65854;DHT22;52627;48.838;2.402;2022-08-19T15:30:46;27.67;52.18
65854;DHT22;52627;48.838;2.402;2022-08-19T15:33:14;27.63;52.30
65854;DHT22;52627;48.838;2.402;2022-08-19T15:35:41;27.59;52.39
65854;DHT22;52627;48.838;2.402;2022-08-19T15:38:10;27.56;52.53
65854;DHT22;52627;48.838;2.402;2022-08-19T15:40:40;27.51;52.54
65854;DHT22;52627;48.838;2.402;2022-08-19T15:43:08;27.47;52.62
65854;DHT22;52627;48.838;2.402;2022-08-19T15:45:36;27.46;52.71
65854;DHT22;52627;48.838;2.402;2022-08-19T15:48:04;27.44;52.72
65854;DHT22;52627;48.838;2.402;2022-08-19T15:50:32;27.40;52.79
65854;DHT22;52627;48.838;2.402;2022-08-19T15:53:03;27.39;52.86
65854;DHT22;52627;48.838;2.402;2022-08-19T15:55:41;27.41;52.98
65854;DHT22;52627;48.838;2.402;2022-08-19T15:58:12;27.41;53.01
65854;DHT22;52627;48.838;2.402;2022-08-19T16:00:59;27.37;53.05
65854;DHT22;52627;48.838;2.402;2022-08-19T16:03:53;27.35;53.12
65854;DHT22;52627;48.838;2.402;2022-08-19T16:06:43;27.30;53.12
65854;DHT22;52627;48.838;2.402;2022-08-19T16:09:18;27.26;53.07
65854;DHT22;52627;48.838;2.402;2022-08-19T16:12:00;27.20;53.08